createdAt,value
2022-11-05T00:09:23.204Z,5.6
2022-11-05T00:11:25.089Z,6.3
2022-11-05T00:13:26.762Z,6.7
2022-11-05T00:15:31.221Z,7.6
2022-11-05T00:17:33.007Z,6.7
2022-11-05T00:19:34.816Z,7.3
2022-11-05T00:21:39.277Z,10.2
2022-11-05T00:23:41.087Z,8.9
2022-11-05T00:25:42.852Z,10.9
2022-11-05T00:36:44.433Z,13.9
2022-11-05T00:38:46.228Z,14
2022-11-05T00:40:50.683Z,15.2
2022-11-05T00:42:52.450Z,16
2022-11-05T00:44:54.246Z,16.5
2022-11-05T00:46:59.981Z,16.5
2022-11-05T00:51:02.214Z,17.8
2022-11-05T00:53:06.659Z,15.7
2022-11-05T00:55:08.425Z,15.8
2022-11-05T00:57:10.199Z,17.3
2022-11-05T00:59:14.661Z,16.2
2022-11-05T01:01:16.600Z,17.2
2022-11-05T01:03:18.186Z,18.2
2022-11-05T01:05:28.757Z,17.1
2022-11-05T01:07:30.665Z,17.9
2022-11-05T01:09:32.284Z,17.7
2022-11-05T01:13:38.490Z,17.8
2022-11-05T01:15:40.292Z,17.7
2022-11-05T01:17:44.670Z,19
2022-11-05T01:19:46.435Z,17.7
2022-11-05T01:21:48.208Z,19.1
2022-11-05T01:23:52.629Z,17.8
2022-11-05T01:25:54.378Z,16.4
2022-11-05T01:27:56.144Z,16.7
2022-11-05T01:30:00.658Z,18.6
2022-11-05T01:32:02.401Z,19.8
2022-11-05T01:34:04.073Z,19
2022-11-05T01:36:08.493Z,18
2022-11-05T01:38:10.243Z,16.8
2022-11-05T01:40:12.021Z,16.1
2022-11-05T01:42:16.447Z,18.2
2022-11-05T01:44:18.175Z,17.4
2022-11-05T01:46:19.955Z,17.9
2022-11-05T01:48:24.367Z,15.9
2022-11-05T01:50:26.112Z,18.6
2022-11-05T01:52:27.943Z,16.9
2022-11-05T01:54:32.321Z,16.4
2022-11-05T01:56:34.070Z,15.8
2022-11-05T01:58:35.808Z,15.1
2022-11-05T02:00:40.278Z,14.3
2022-11-05T02:04:43.780Z,16.5
2022-11-05T02:08:49.953Z,14.3
2022-11-05T02:10:51.685Z,14.7
2022-11-05T02:12:56.146Z,13.5
2022-11-05T02:14:57.898Z,14.2
2022-11-05T02:16:59.635Z,12.6
2022-11-05T02:19:04.072Z,13.5
2022-11-05T02:21:05.806Z,11.7
2022-11-05T02:23:07.669Z,13.9
2022-11-05T02:29:15.480Z,14.4
2022-11-05T02:34:19.459Z,12.8
2022-11-05T02:36:21.202Z,11.9
2022-11-05T02:38:22.915Z,13.8
2022-11-05T02:40:27.346Z,11.2
2022-11-05T02:42:29.092Z,12.3
2022-11-05T02:44:30.825Z,12
2022-11-05T02:46:35.267Z,13
2022-11-05T02:48:37.007Z,12.8
2022-11-05T02:50:38.765Z,11.5
2022-11-05T02:58:51.064Z,13.7
2022-11-05T03:02:54.618Z,12.9
2022-11-05T03:04:58.918Z,13.2
2022-11-05T03:07:00.665Z,13.1
2022-11-05T03:09:02.374Z,13.4
2022-11-05T03:11:06.775Z,14.8
2022-11-05T03:15:10.249Z,14.1
2022-11-05T03:26:24.653Z,13.5
2022-11-05T03:28:26.330Z,14
2022-11-05T03:30:28.063Z,14.6
2022-11-05T03:32:32.481Z,12.6
2022-11-05T03:34:34.175Z,12.7
2022-11-05T03:36:35.910Z,12.6
2022-11-05T03:38:40.328Z,12.8
2022-11-05T03:40:42.046Z,12.3
2022-11-05T03:42:43.754Z,11.9
2022-11-05T03:44:48.178Z,12.4
2022-11-05T03:46:50.939Z,13.9
2022-11-05T03:48:51.754Z,12.2
2022-11-05T03:50:58.856Z,11.9
2022-11-05T03:54:59.514Z,14.2
2022-11-05T03:57:03.908Z,13.8
2022-11-05T04:03:12.095Z,13
2022-11-05T04:05:13.492Z,13.9
2022-11-05T04:07:15.249Z,13.3
2022-11-05T04:09:19.638Z,13.5
2022-11-05T04:11:21.375Z,14.5
2022-11-05T04:13:23.116Z,15
2022-11-05T04:15:27.507Z,14.1
2022-11-05T04:17:29.245Z,19
2022-11-05T04:19:30.973Z,15.1
2022-11-05T04:21:35.358Z,15.1
2022-11-05T04:25:38.804Z,12.4
2022-11-05T04:27:43.202Z,14.6
2022-11-05T04:29:44.917Z,16.4
2022-11-05T04:31:46.638Z,17.3
2022-11-05T04:33:51.023Z,17.3
2022-11-05T04:35:52.756Z,15.6
2022-11-05T04:37:54.467Z,18.7
2022-11-05T04:39:58.876Z,18.5
2022-11-05T04:42:00.590Z,20.2
2022-11-05T04:44:02.319Z,16.9
2022-11-05T04:46:06.705Z,16.9
2022-11-05T04:48:08.423Z,21.5
2022-11-05T04:50:10.163Z,21
2022-11-05T04:52:14.561Z,20.8
2022-11-05T04:54:16.274Z,21.3
2022-11-05T04:56:18.154Z,21.1
2022-11-05T04:58:22.407Z,20.4
2022-11-05T05:00:24.140Z,20.5
2022-11-05T05:02:25.859Z,19.9
2022-11-05T05:06:31.984Z,22
2022-11-05T05:08:33.724Z,20.3
2022-11-05T05:12:39.874Z,20.9
2022-11-05T05:14:41.547Z,20.7
2022-11-05T05:16:45.949Z,24
2022-11-05T05:20:49.377Z,21.9
2022-11-05T05:22:53.786Z,20.9
2022-11-05T05:24:55.501Z,20.8
2022-11-05T05:26:57.203Z,22.4
2022-11-05T05:29:01.637Z,22.3
2022-11-05T05:31:03.359Z,22
2022-11-05T05:33:05.010Z,22.2
2022-11-05T05:35:09.422Z,22.1
2022-11-05T05:37:11.116Z,24.6
2022-11-05T05:39:12.814Z,24.3
2022-11-05T05:41:17.195Z,23.1
2022-11-05T05:43:18.905Z,23.5
2022-11-05T05:45:20.615Z,22
2022-11-05T05:47:25.025Z,23.3
2022-11-05T05:51:28.462Z,22.7
2022-11-05T05:53:32.872Z,23.3
2022-11-05T05:55:34.594Z,24.2
2022-11-05T05:57:36.303Z,24
2022-11-05T06:01:42.553Z,25.3
2022-11-05T06:03:44.148Z,26.9
2022-11-05T06:05:48.538Z,23.3
2022-11-05T06:07:50.263Z,25.8
2022-11-05T06:09:51.978Z,28.4
2022-11-05T06:11:56.389Z,25.4
2022-11-05T06:15:59.824Z,25.8
2022-11-05T06:20:05.947Z,25.6
2022-11-05T06:24:12.078Z,27.3
2022-11-05T06:28:15.502Z,24.6
2022-11-05T06:30:19.918Z,26.6
2022-11-05T06:32:21.628Z,25.7
2022-11-05T06:34:23.331Z,25.6
2022-11-05T06:42:03.862Z,24.8
2022-11-05T06:43:41.166Z,23.1
2022-11-05T06:51:53.365Z,25.2
2022-11-05T06:53:55.080Z,26.6
2022-11-05T06:55:56.792Z,24.8
2022-11-05T06:58:01.180Z,22.3
2022-11-05T07:00:07.463Z,26.5
2022-11-05T07:02:04.889Z,27.5
2022-11-05T07:04:09.036Z,25.5
2022-11-05T07:06:10.751Z,29.7
2022-11-05T07:08:12.462Z,28.6
2022-11-05T07:10:16.872Z,28.1
2022-11-05T07:12:18.599Z,29
2022-11-05T07:14:20.296Z,30.2
2022-11-05T07:16:24.733Z,29.5
2022-11-05T07:18:26.445Z,30.4
2022-11-05T07:20:33.246Z,29
2022-11-05T07:22:32.608Z,30.7
2022-11-05T07:24:34.341Z,29.1
2022-11-05T07:26:36.074Z,30.4
2022-11-05T07:28:40.515Z,30
2022-11-05T07:30:42.277Z,29
2022-11-05T07:32:44.022Z,30.5
2022-11-05T07:34:48.465Z,27.9
2022-11-05T07:36:50.204Z,28.2
2022-11-05T07:38:53.884Z,26
2022-11-05T07:40:56.379Z,28.2
2022-11-05T07:42:58.173Z,26.6
2022-11-05T07:44:59.915Z,27.8
2022-11-05T07:47:04.366Z,28.9
2022-11-05T07:49:06.136Z,25.5
2022-11-05T07:55:14.101Z,28.4
2022-11-05T08:01:22.385Z,26
2022-11-05T08:03:23.965Z,26.9
2022-11-05T08:05:28.288Z,27.1
2022-11-05T08:09:31.812Z,32.1
2022-11-05T08:13:38.013Z,24.7
2022-11-05T08:17:44.269Z,24.3
2022-11-05T08:19:46.024Z,25.4
2022-11-05T08:23:52.243Z,25
2022-11-05T08:25:54.027Z,25.2
2022-11-05T08:30:00.237Z,25.7
2022-11-05T08:32:02.017Z,26
2022-11-05T08:34:03.801Z,26.9
2022-11-05T08:38:10.048Z,26.3
2022-11-05T08:40:11.809Z,25.2
2022-11-05T08:45:20.923Z,24.8
2022-11-05T08:47:22.727Z,26.5
2022-11-05T08:49:24.518Z,25.7
2022-11-05T08:55:32.588Z,25.9
2022-11-05T08:57:43.162Z,25.9
2022-11-05T08:59:44.880Z,25.5
2022-11-05T09:01:46.780Z,26.8
2022-11-05T09:03:51.131Z,27.4
2022-11-05T09:05:52.955Z,25.8
2022-11-05T09:08:00.478Z,29.3
2022-11-05T09:09:59.233Z,23
2022-11-05T09:12:11.696Z,27
2022-11-05T09:14:02.831Z,26.7
2022-11-05T09:16:07.330Z,27
2022-11-05T09:18:09.115Z,26.2
2022-11-05T09:20:10.927Z,26.5
2022-11-05T09:22:15.434Z,26.1
2022-11-05T09:26:19.041Z,25.1
2022-11-05T09:28:23.577Z,25.6
2022-11-05T09:30:25.347Z,24.9
2022-11-05T09:32:27.168Z,24.9
2022-11-05T09:34:31.681Z,26.4
2022-11-05T09:36:33.496Z,23.7
2022-11-05T09:38:35.311Z,22.2
2022-11-05T09:43:41.987Z,21.3
2022-11-05T09:49:50.156Z,19.3
2022-11-05T09:51:51.982Z,18.3
2022-11-05T09:56:17.928Z,14.2
2022-11-05T09:58:23.187Z,14.6
2022-11-05T10:02:26.775Z,9.8
2022-11-05T10:04:28.440Z,9.2
2022-11-05T10:06:30.380Z,9.2
2022-11-05T10:08:31.953Z,10.4
2022-11-05T10:10:39.369Z,6.8
2022-11-05T10:12:35.441Z,7.2
2022-11-05T10:14:37.209Z,7.1
2022-11-05T10:16:42.473Z,5.8
2022-11-05T10:18:44.252Z,6
2022-11-05T10:20:46.029Z,4.8
2022-11-05T10:22:49.663Z,4.9
2022-11-05T10:24:49.512Z,4
2022-11-05T10:26:51.287Z,3.7
2022-11-05T10:28:53.076Z,4.8
2022-11-05T10:30:58.341Z,2.7
2022-11-05T10:33:00.145Z,3.7
2022-11-05T10:35:01.922Z,3
2022-11-05T10:37:03.694Z,3.1
2022-11-05T10:39:05.461Z,2.6
2022-11-05T10:43:09.358Z,3
2022-11-05T10:45:14.335Z,3.2
2022-11-05T10:47:16.097Z,3.2
2022-11-05T10:49:18.046Z,3.3
2022-11-05T10:50:20.686Z,3.1
2022-11-05T10:52:22.471Z,2.9
2022-11-05T10:54:24.263Z,3.5
2022-11-05T10:58:31.323Z,4
2022-11-05T11:00:33.125Z,3
2022-11-05T11:02:34.951Z,2.9
2022-11-05T11:04:38.214Z,3
2022-11-05T11:06:38.522Z,3.5
2022-11-05T11:08:40.302Z,2.5
2022-11-05T11:10:42.089Z,4.1
2022-11-05T11:12:47.363Z,3.5
2022-11-05T11:14:49.180Z,3.5
2022-11-05T11:16:50.952Z,2.9
2022-11-05T11:18:52.771Z,3.4
2022-11-05T11:20:54.552Z,2.9
2022-11-05T11:22:56.337Z,3
2022-11-05T11:24:58.147Z,3.5
2022-11-05T11:27:03.390Z,3.3
2022-11-05T11:29:05.192Z,2.9
2022-11-05T11:31:06.979Z,2.7
2022-11-05T11:35:10.539Z,4
2022-11-05T11:37:18.197Z,3.4
2022-11-05T11:39:14.088Z,2.7
2022-11-05T11:41:19.355Z,3.4
2022-11-05T11:43:21.130Z,3.2
2022-11-05T11:45:22.896Z,3.2
2022-11-05T11:46:25.555Z,3.8
2022-11-05T11:48:27.322Z,3.8
2022-11-05T11:50:29.100Z,3.4
2022-11-05T11:54:36.131Z,3
2022-11-05T11:58:39.702Z,3.3
2022-11-05T12:00:41.496Z,2.9
2022-11-05T12:02:43.338Z,2.6
2022-11-05T12:04:45.057Z,3.7
2022-11-05T12:06:46.841Z,2.6
2022-11-05T12:08:59.273Z,2.7
2022-11-05T12:10:53.935Z,3.5
2022-11-05T12:12:55.736Z,3.5
2022-11-05T12:14:57.508Z,3.6
2022-11-05T12:16:59.313Z,2.9
2022-11-05T12:19:01.103Z,2.6
2022-11-05T12:21:02.886Z,3
2022-11-05T12:23:08.405Z,3.1
2022-11-05T12:25:09.964Z,2
2022-11-05T12:27:11.754Z,2.8
2022-11-05T12:29:18.805Z,2.5
2022-11-05T12:33:17.517Z,2.2
2022-11-05T12:35:18.909Z,2.3
2022-11-05T12:37:24.171Z,2.4
2022-11-05T12:39:25.955Z,2.3
2022-11-05T12:41:27.732Z,4.4
2022-11-05T12:42:30.378Z,2.5
2022-11-05T12:46:33.952Z,2.1
2022-11-05T12:50:40.988Z,3.6
2022-11-05T12:52:42.768Z,3
2022-11-05T12:54:44.544Z,3.9
2022-11-05T12:56:46.336Z,2.7
2022-11-05T13:00:49.971Z,2.1
2022-11-05T13:04:56.960Z,7.4
2022-11-05T13:06:58.765Z,2.5
2022-11-05T13:09:00.540Z,2.6
2022-11-05T13:11:02.349Z,3.5
2022-11-05T13:17:07.739Z,3.1
2022-11-05T13:25:18.347Z,2.6
2022-11-05T13:35:30.767Z,3
2022-11-05T13:37:32.515Z,3.1
2022-11-05T13:39:56.264Z,3.3
2022-11-05T13:41:58.054Z,3.1
2022-11-05T13:43:59.826Z,3.3
2022-11-05T13:48:06.903Z,3.3
2022-11-05T13:50:08.770Z,3.1
2022-11-05T13:52:10.474Z,3.5
2022-11-05T13:54:12.271Z,3.3
2022-11-05T13:56:14.061Z,3.5
2022-11-05T13:58:15.869Z,3.3
2022-11-05T14:00:21.136Z,3.8
2022-11-05T14:02:23.056Z,4.2
2022-11-05T14:04:24.711Z,2.7
2022-11-05T14:06:26.493Z,3.2
2022-11-05T14:08:28.297Z,3.4
2022-11-05T14:10:30.106Z,4
2022-11-05T14:12:31.907Z,3.7
2022-11-05T14:14:37.178Z,3.9
2022-11-05T14:16:38.945Z,4.2
2022-11-05T14:18:40.839Z,4.3
2022-11-05T14:20:42.497Z,4.6
2022-11-05T14:22:44.281Z,3.8
2022-11-05T14:24:47.786Z,4.5
2022-11-05T14:26:49.501Z,4
2022-11-05T14:32:58.343Z,4.8
2022-11-05T14:34:00.983Z,3.5
2022-11-05T14:36:02.767Z,2.8
2022-11-05T14:38:04.541Z,4.4
2022-11-05T14:40:06.355Z,4
2022-11-05T14:42:11.582Z,6.4
2022-11-05T14:44:13.415Z,5.3
2022-11-05T14:46:15.297Z,9.2
2022-11-05T14:48:16.931Z,5.3
2022-11-05T14:50:18.720Z,4.7
2022-11-05T14:52:20.494Z,5.5
2022-11-05T14:54:22.262Z,4
2022-11-05T14:56:27.552Z,4.5
2022-11-05T14:58:29.359Z,5.1
2022-11-05T15:00:31.128Z,4.8
2022-11-05T15:02:32.996Z,4.6
2022-11-05T15:04:34.631Z,4.6
2022-11-05T15:08:38.155Z,4.2
2022-11-05T15:10:43.448Z,4.9
2022-11-05T15:14:46.999Z,4.1
2022-11-05T15:16:48.759Z,4.1
2022-11-05T15:18:50.519Z,3.6
2022-11-05T15:20:52.301Z,3.3
2022-11-05T15:22:54.117Z,4.5
2022-11-05T15:24:59.311Z,4.4
2022-11-05T15:27:01.098Z,3.4
2022-11-05T15:29:02.882Z,3.6
2022-11-05T15:34:09.024Z,3.1
2022-11-05T15:40:17.853Z,3.2
2022-11-05T15:42:19.615Z,3.1
2022-11-05T15:44:21.478Z,6.6
2022-11-05T15:50:26.855Z,4.1
2022-11-05T15:52:31.991Z,2.9
2022-11-05T15:54:34.197Z,3.6
2022-11-05T15:56:35.536Z,3.6
2022-11-05T15:58:37.300Z,3.5
2022-11-05T16:00:39.039Z,3
2022-11-05T16:02:40.976Z,3.4
2022-11-05T16:04:42.578Z,3.1
2022-11-05T16:06:47.799Z,4
2022-11-05T16:08:49.558Z,3.8
2022-11-05T16:14:55.238Z,4
2022-11-05T16:16:56.930Z,3.1
2022-11-05T16:18:58.777Z,4
2022-11-05T16:21:04.218Z,4.1
2022-11-05T16:25:08.069Z,4.1
2022-11-05T16:26:10.625Z,4
2022-11-05T16:28:12.455Z,3.6
2022-11-05T16:30:14.045Z,3.4
2022-11-05T16:32:15.788Z,3.5
2022-11-05T16:34:21.026Z,3.1
2022-11-05T16:38:24.521Z,3.1
2022-11-05T16:40:26.330Z,2.3
2022-11-05T16:42:28.071Z,2.7
2022-11-05T16:44:29.866Z,3.4
2022-11-05T16:46:31.619Z,3
2022-11-05T16:48:36.899Z,3.8
2022-11-05T16:50:38.684Z,3.8
2022-11-05T16:52:40.476Z,3.7
2022-11-05T16:54:42.256Z,3.4
2022-11-05T16:56:44.032Z,3.3
2022-11-05T16:58:45.820Z,3.4
2022-11-05T17:00:47.571Z,3.7
2022-11-05T17:02:52.944Z,4.5
2022-11-05T17:04:54.553Z,3.2
2022-11-05T17:06:56.360Z,3
2022-11-05T17:08:58.079Z,3.8
2022-11-05T17:10:59.880Z,3.7
2022-11-05T17:13:01.618Z,6.7
2022-11-05T17:15:03.356Z,3.7
2022-11-05T17:17:08.616Z,3.8
2022-11-05T17:19:10.409Z,4.5
2022-11-05T17:21:12.218Z,3.8
2022-11-05T17:23:33.673Z,3.3
2022-11-05T17:25:35.441Z,3.7
2022-11-05T17:27:37.222Z,3.5
2022-11-05T17:29:42.488Z,3.5
2022-11-05T17:31:44.336Z,4
2022-11-05T17:33:46.029Z,3.6
2022-11-05T17:35:47.790Z,3.6
2022-11-05T17:37:49.617Z,3.1
2022-11-05T17:39:51.343Z,2.9
2022-11-05T17:41:53.262Z,3.2
2022-11-05T17:43:58.382Z,3.7
2022-11-05T17:46:04.452Z,2.7
2022-11-05T17:48:01.960Z,3.4
2022-11-05T17:50:03.707Z,4.1
2022-11-05T17:52:05.646Z,3.6
2022-11-05T17:54:07.238Z,4.3
2022-11-05T17:56:09.038Z,3.4
2022-11-05T17:58:14.238Z,4.1
2022-11-05T18:00:16.015Z,3.4
2022-11-05T18:02:18.057Z,3.9
2022-11-05T18:04:19.519Z,4.9
2022-11-05T18:06:21.356Z,4.2
2022-11-05T18:10:25.083Z,8.8
2022-11-05T18:17:36.968Z,9.9
2022-11-05T18:19:38.710Z,7.6
2022-11-05T18:21:40.481Z,4.4
2022-11-05T18:23:42.244Z,5.2
2022-11-05T18:25:47.794Z,3.7
2022-11-05T18:27:49.533Z,3.6
2022-11-05T18:29:51.357Z,3.4
2022-11-05T18:31:53.201Z,3.2
2022-11-05T18:33:55.065Z,4.7
2022-11-05T18:35:56.905Z,3.8
2022-11-05T18:37:58.651Z,3.7
2022-11-05T18:40:03.972Z,3.9
2022-11-05T18:42:05.812Z,3.7
2022-11-05T18:44:07.565Z,3.8
2022-11-05T18:46:15.719Z,3
2022-11-05T18:48:11.617Z,3.3
2022-11-05T18:50:13.080Z,5.9
2022-11-05T18:52:14.945Z,4.7
2022-11-05T18:54:20.339Z,3.3
2022-11-05T19:00:25.601Z,3.8
2022-11-05T19:02:27.586Z,2.9
2022-11-05T19:04:29.144Z,4.3
2022-11-05T19:06:31.048Z,3.3
2022-11-05T19:08:36.455Z,3.5
2022-11-05T19:10:38.212Z,4.5
2022-11-05T19:12:40.037Z,3.5
2022-11-05T19:15:44.610Z,3.6
2022-11-05T19:17:46.445Z,3.1
2022-11-05T19:19:48.164Z,3.7
2022-11-05T19:21:53.450Z,3.8
2022-11-05T19:23:55.290Z,3.1
2022-11-05T19:25:57.034Z,3.3
2022-11-05T19:27:58.876Z,3.7
2022-11-05T19:30:00.765Z,3.8
2022-11-05T19:34:04.248Z,3.1
2022-11-05T19:36:09.500Z,3.3
2022-11-05T19:38:11.562Z,3.6
2022-11-05T19:40:13.039Z,3.9
2022-11-05T19:44:16.590Z,3.5
2022-11-05T19:46:18.375Z,3.7
2022-11-05T19:48:20.404Z,3.3
2022-11-05T19:50:25.359Z,3.1
2022-11-05T19:52:27.150Z,4
2022-11-05T19:54:29.033Z,3.6
2022-11-05T19:56:30.696Z,3.2
2022-11-05T19:58:32.426Z,3.6
2022-11-05T20:00:34.196Z,4.1
2022-11-05T20:02:36.078Z,2.9
2022-11-05T20:04:41.259Z,3.1
2022-11-05T20:06:43.017Z,3.6
2022-11-05T20:09:07.008Z,3.8
2022-11-05T20:09:47.555Z,5.1
2022-11-05T20:11:49.176Z,4.8
2022-11-05T20:13:50.960Z,6
2022-11-05T20:17:59.953Z,3.6
2022-11-05T20:26:07.005Z,4.6
2022-11-05T20:28:08.773Z,3.6
2022-11-05T20:32:15.769Z,3.8
2022-11-05T20:34:17.521Z,2.8
2022-11-05T20:38:21.009Z,3.7
2022-11-05T20:40:22.775Z,4.3
2022-11-05T20:44:26.458Z,3.5
2022-11-05T20:46:31.671Z,3.8
2022-11-05T20:48:33.450Z,3
2022-11-05T20:50:35.362Z,4
2022-11-05T20:52:37.066Z,3.3
2022-11-05T20:54:38.888Z,4
2022-11-05T20:58:42.337Z,5.5
2022-11-05T21:00:47.621Z,4
2022-11-05T21:02:49.537Z,3.8
2022-11-05T21:04:51.179Z,3.5
2022-11-05T21:07:15.041Z,3.6
2022-11-05T21:09:16.778Z,3.4
2022-11-05T21:11:18.688Z,3.8
2022-11-05T21:13:23.808Z,3.9
2022-11-05T21:15:25.606Z,4.5
2022-11-05T21:17:27.342Z,4.4
2022-11-05T21:19:29.124Z,4.2
2022-11-05T21:21:30.850Z,3.4
2022-11-05T21:23:32.615Z,3.9
2022-11-05T21:25:34.578Z,4
2022-11-05T21:27:43.379Z,4
2022-11-05T21:29:35.821Z,4.6
2022-11-05T21:31:37.553Z,3.9
2022-11-05T21:33:39.311Z,4.7
2022-11-05T21:35:41.090Z,4.3
2022-11-05T21:37:42.866Z,5.3
2022-11-05T21:39:44.639Z,3.8
2022-11-05T21:41:50.011Z,3.2
2022-11-05T21:43:52.147Z,4.1
2022-11-05T21:47:55.671Z,3.4
2022-11-05T21:49:57.439Z,3.6
2022-11-05T21:51:59.406Z,4.7
2022-11-05T21:54:00.965Z,3.9
2022-11-05T21:56:06.178Z,4.1
2022-11-05T21:58:07.998Z,3.7
2022-11-05T22:00:09.692Z,4.4
2022-11-05T22:03:14.085Z,3.8
2022-11-05T22:05:15.824Z,3.6
2022-11-05T22:13:26.329Z,3.9
2022-11-05T22:19:31.590Z,4.2
2022-11-05T22:23:38.643Z,4.8
2022-11-05T22:25:40.503Z,4.8
2022-11-05T22:31:46.044Z,4.8
2022-11-05T22:33:47.861Z,5
2022-11-05T22:35:49.689Z,4.9
2022-11-05T22:39:56.891Z,5.5
2022-11-05T22:41:58.807Z,4.9
2022-11-05T22:44:00.564Z,4.9
2022-11-05T22:46:02.392Z,5.6
2022-11-05T22:48:06.916Z,4.8
2022-11-05T22:50:06.074Z,5.2
2022-11-05T22:52:11.473Z,4.6
2022-11-05T22:54:13.304Z,4.9
2022-11-05T22:56:15.150Z,5.1
2022-11-05T22:57:17.842Z,6.2
2022-11-05T22:59:19.656Z,4.5
2022-11-05T23:07:30.597Z,4.9
2022-11-05T23:09:32.427Z,4.6
2022-11-05T23:11:34.258Z,5.2
2022-11-05T23:13:36.081Z,4.7
2022-11-05T23:15:37.934Z,4.3
2022-11-05T23:21:46.824Z,4.2
2022-11-05T23:31:55.910Z,4.5
2022-11-05T23:42:08.666Z,4.9
2022-11-05T23:48:17.758Z,5.5
2022-11-05T23:53:24.154Z,4.4
2022-11-05T23:55:25.979Z,4.1
2022-11-05T23:57:27.836Z,5
2022-11-05T23:59:29.677Z,5.3
